Time;durP1;ratioP1;P1;durP2;ratioP2;P2;SDS_P1;SDS_P2;PMS_P1;PMS_P2;Temp;Humidity;BMP_temperature;BMP_pressure;BME280_temperature;BME280_humidity;BME280_pressure;Samples;Min_cycle;Max_cycle;Signal;HPM_P1;HPM_P2
2022/06/08 00:02:08;;;;;;;1.77;1.30;;;16.00;99.90;;;;;;5073661;28;20216;-69
2022/06/08 00:04:34;;;;;;;4.90;1.50;;;15.90;99.90;;;;;;5073423;28;20169;-69
2022/06/08 00:07:00;;;;;;;2.47;1.50;;;15.80;99.90;;;;;;5072771;28;20192;-68
2022/06/08 00:09:26;;;;;;;1.90;1.60;;;15.80;99.90;;;;;;5073326;28;20192;-69
2022/06/08 00:11:52;;;;;;;2.03;1.63;;;15.70;99.90;;;;;;5073718;28;20587;-68
2022/06/08 00:14:18;;;;;;;1.52;1.23;;;15.70;99.90;;;;;;5072107;28;20177;-69
2022/06/08 00:16:43;;;;;;;2.40;1.42;;;15.70;99.90;;;;;;5065842;28;20601;-70
2022/06/08 00:19:09;;;;;;;3.83;1.80;;;15.70;99.90;;;;;;5067392;28;20240;-69
2022/06/08 00:21:35;;;;;;;3.88;1.35;;;15.70;99.90;;;;;;5072858;28;20238;-70
2022/06/08 00:24:01;;;;;;;1.80;1.50;;;15.70;99.90;;;;;;5072794;28;20185;-68
2022/06/08 00:26:26;;;;;;;2.85;1.42;;;15.60;99.90;;;;;;5072840;28;20177;-69
2022/06/08 00:28:52;;;;;;;2.60;1.50;;;15.60;99.90;;;;;;5073215;28;20268;-68
2022/06/08 00:31:18;;;;;;;2.60;1.50;;;15.60;99.90;;;;;;5072871;28;20264;-68
2022/06/08 00:33:44;;;;;;;2.03;1.50;;;15.60;99.90;;;;;;5072901;28;20184;-69
2022/06/08 00:36:10;;;;;;;1.60;1.40;;;15.60;99.90;;;;;;5072531;28;20207;-69
2022/06/08 00:38:36;;;;;;;1.45;1.35;;;15.60;99.90;;;;;;5072829;28;20657;-69
2022/06/08 00:41:29;;;;;;;2.35;1.40;;;15.50;99.90;;;;;;5072515;28;20223;-69
2022/06/08 00:43:56;;;;;;;4.15;1.60;;;15.60;99.90;;;;;;5072878;28;20539;-69
2022/06/08 00:46:21;;;;;;;1.92;1.35;;;15.60;99.90;;;;;;5072869;28;20671;-69
2022/06/08 00:48:54;;;;;;;2.30;1.50;;;15.50;99.90;;;;;;5072738;28;20189;-69
2022/06/08 00:51:20;;;;;;;3.08;1.70;;;15.50;99.90;;;;;;5072465;28;20188;-69
2022/06/08 00:53:53;;;;;;;2.95;1.40;;;15.50;99.90;;;;;;5072799;28;20584;-70
2022/06/08 00:56:24;;;;;;;1.88;1.27;;;15.50;99.90;;;;;;5072379;28;20294;-69
2022/06/08 00:58:51;;;;;;;2.03;1.50;;;15.40;99.90;;;;;;5072617;28;20235;-69
2022/06/08 01:01:16;;;;;;;2.63;1.90;;;15.40;99.90;;;;;;5071040;28;20526;-68
2022/06/08 01:03:42;;;;;;;1.95;1.50;;;15.40;99.90;;;;;;5071909;28;20180;-69
2022/06/08 01:06:21;;;;;;;3.47;1.45;;;15.40;99.90;;;;;;5072134;28;20565;-70
2022/06/08 01:08:52;;;;;;;3.28;1.60;;;15.30;99.90;;;;;;5052849;28;20574;-69
2022/06/08 01:11:31;;;;;;;4.20;1.67;;;15.30;99.90;;;;;;5062364;28;20176;-69
2022/06/08 01:14:00;;;;;;;4.45;1.65;;;15.30;99.90;;;;;;5071837;28;20385;-70
2022/06/08 01:16:26;;;;;;;1.40;1.30;;;15.20;99.90;;;;;;5067097;28;20213;-70
2022/06/08 01:18:51;;;;;;;1.98;1.40;;;15.20;99.90;;;;;;5071455;28;20220;-70
2022/06/08 01:21:20;;;;;;;2.55;1.70;;;15.10;99.90;;;;;;5072262;28;20195;-71
2022/06/08 01:23:47;;;;;;;1.75;1.65;;;15.10;99.90;;;;;;5072147;28;20506;-70
2022/06/08 01:26:43;;;;;;;2.38;1.30;;;15.10;99.90;;;;;;5071704;28;20181;-70
2022/06/08 01:29:31;;;;;;;3.95;1.40;;;15.00;99.90;;;;;;5071677;28;20208;-71
2022/06/08 01:32:39;;;;;;;1.52;1.42;;;15.00;99.90;;;;;;5070776;28;20268;-70
2022/06/08 01:35:13;;;;;;;1.92;1.52;;;15.00;99.90;;;;;;5070864;28;20191;-70
2022/06/08 01:37:45;;;;;;;2.40;1.48;;;15.00;99.90;;;;;;5071946;28;20212;-71
2022/06/08 01:40:13;;;;;;;3.30;1.50;;;15.00;99.90;;;;;;5072006;28;20176;-70
2022/06/08 01:43:12;;;;;;;11.80;3.45;;;14.90;99.90;;;;;;5071893;28;20176;-71
2022/06/08 01:45:49;;;;;;;16.42;5.20;;;14.90;99.90;;;;;;5069944;28;20180;-70
2022/06/08 01:48:39;;;;;;;17.98;4.78;;;14.90;99.90;;;;;;5071506;28;20555;-70
2022/06/08 01:51:38;;;;;;;8.60;3.80;;;14.90;99.90;;;;;;5071837;28;20187;-70
2022/06/08 01:54:22;;;;;;;7.38;3.25;;;14.80;99.90;;;;;;5069567;28;20176;-70
2022/06/08 01:57:21;;;;;;;8.65;3.25;;;14.80;99.90;;;;;;5072014;28;20239;-71
2022/06/08 02:00:14;;;;;;;33.25;11.30;;;14.70;99.90;;;;;;5069201;28;20189;-70
2022/06/08 02:03:13;;;;;;;39.75;11.85;;;14.70;99.90;;;;;;5071463;28;20207;-70
2022/06/08 02:06:07;;;;;;;110.38;31.83;;;14.60;99.90;;;;;;5071423;28;20173;-70
2022/06/08 02:08:50;;;;;;;100.32;28.75;;;14.50;99.90;;;;;;5072053;28;20235;-70
2022/06/08 02:11:19;;;;;;;62.83;20.08;;;14.50;99.90;;;;;;5071423;28;20273;-70
2022/06/08 02:13:53;;;;;;;42.15;14.70;;;14.50;99.90;;;;;;5070652;28;20181;-70
2022/06/08 02:16:44;;;;;;;29.35;10.38;;;14.50;99.90;;;;;;5070565;28;20269;-70
2022/06/08 02:19:35;;;;;;;28.00;9.05;;;14.40;99.90;;;;;;5061463;28;20216;-70
2022/06/08 02:22:07;;;;;;;47.38;15.82;;;14.40;99.90;;;;;;5075455;28;20192;-70
2022/06/08 02:24:45;;;;;;;27.60;10.55;;;14.40;99.90;;;;;;5073763;28;20522;-70
2022/06/08 02:27:17;;;;;;;34.10;11.25;;;14.40;99.90;;;;;;5075430;28;20180;-70
2022/06/08 02:29:59;;;;;;;94.25;28.20;;;14.40;99.90;;;;;;5075499;28;20242;-70
2022/06/08 02:35:20;;;;;;;36.75;12.02;;;14.30;99.90;;;;;;5058380;28;20579;-70
2022/06/08 02:37:48;;;;;;;21.50;8.02;;;14.30;99.90;;;;;;5075089;28;20781;-70
2022/06/08 02:40:18;;;;;;;14.15;4.18;;;14.30;99.90;;;;;;5074329;28;20195;-70
2022/06/08 02:42:49;;;;;;;8.00;3.30;;;14.30;99.90;;;;;;5075204;28;20191;-70
2022/06/08 02:45:20;;;;;;;5.13;2.50;;;14.30;99.90;;;;;;5073453;28;20192;-70
2022/06/08 02:47:48;;;;;;;3.88;2.05;;;14.30;99.90;;;;;;5074857;28;20191;-71
2022/06/08 02:50:20;;;;;;;25.52;9.25;;;14.30;99.90;;;;;;5074874;28;20247;-71
2022/06/08 02:52:49;;;;;;;56.65;18.25;;;14.30;99.90;;;;;;5073718;28;20660;-70
2022/06/08 02:55:49;;;;;;;68.93;20.52;;;14.30;99.90;;;;;;5074436;28;20227;-71
2022/06/08 02:58:33;;;;;;;63.22;19.35;;;14.30;99.90;;;;;;5074791;28;20189;-71
2022/06/08 03:01:05;;;;;;;59.70;17.67;;;14.30;99.90;;;;;;5074442;28;20181;-70
2022/06/08 03:03:42;;;;;;;43.78;14.90;;;14.30;99.90;;;;;;5074890;28;20286;-70
2022/06/08 03:06:14;;;;;;;28.42;9.50;;;14.30;99.90;;;;;;5073991;28;20173;-70
2022/06/08 03:08:47;;;;;;;31.98;9.57;;;14.30;99.90;;;;;;5074611;28;20651;-71
2022/06/08 03:11:14;;;;;;;35.65;12.70;;;14.30;99.90;;;;;;5074442;28;20173;-70
2022/06/08 03:13:45;;;;;;;55.00;18.35;;;14.20;99.90;;;;;;5074653;28;20184;-70
2022/06/08 03:16:26;;;;;;;61.95;19.23;;;14.20;99.90;;;;;;5071362;28;20644;-70
2022/06/08 03:18:52;;;;;;;41.20;12.90;;;14.30;99.90;;;;;;5063981;28;20219;-70
2022/06/08 03:21:17;;;;;;;19.98;7.47;;;14.30;99.90;;;;;;5073940;28;20185;-70
2022/06/08 03:23:43;;;;;;;13.57;5.40;;;14.30;99.90;;;;;;5074279;28;20255;-70
2022/06/08 03:26:08;;;;;;;20.50;8.32;;;14.30;99.90;;;;;;5073231;28;20260;-70
2022/06/08 03:28:34;;;;;;;35.60;12.32;;;14.30;99.90;;;;;;5074022;28;20200;-70
2022/06/08 03:30:59;;;;;;;48.20;16.90;;;14.30;99.90;;;;;;5072072;28;20647;-70
2022/06/08 03:33:25;;;;;;;115.35;33.25;;;14.40;99.90;;;;;;5073375;28;20204;-70
2022/06/08 03:35:50;;;;;;;82.10;25.77;;;14.40;99.90;;;;;;5073421;28;20591;-70
2022/06/08 03:38:16;;;;;;;62.53;20.13;;;14.50;99.90;;;;;;5074128;28;20193;-71
2022/06/08 03:40:42;;;;;;;46.03;15.93;;;14.50;99.90;;;;;;5073488;28;20177;-71
2022/06/08 03:43:07;;;;;;;29.80;10.07;;;14.50;99.90;;;;;;5073781;28;20643;-70
2022/06/08 03:45:44;;;;;;;48.92;16.98;;;14.60;99.90;;;;;;5073643;28;20185;-71
2022/06/08 03:48:10;;;;;;;70.25;21.50;;;14.70;99.90;;;;;;5073903;28;20176;-70
2022/06/08 03:50:37;;;;;;;52.80;17.58;;;14.70;99.90;;;;;;5073563;28;20523;-70
2022/06/08 03:53:07;;;;;;;66.18;22.90;;;14.80;99.90;;;;;;5072411;28;20208;-68
2022/06/08 03:55:35;;;;;;;53.70;17.83;;;14.80;99.90;;;;;;5074167;28;20219;-71
2022/06/08 03:58:02;;;;;;;25.13;9.15;;;14.90;99.90;;;;;;5072186;28;20212;-70
2022/06/08 04:00:28;;;;;;;15.98;6.32;;;15.00;99.90;;;;;;5071945;28;20175;-69
2022/06/08 04:02:54;;;;;;;8.02;3.45;;;15.00;99.90;;;;;;5060384;28;20216;-69
2022/06/08 04:05:20;;;;;;;4.18;2.60;;;15.20;99.90;;;;;;5071464;28;20196;-70
2022/06/08 04:07:46;;;;;;;4.15;2.13;;;15.20;99.90;;;;;;5073829;28;20188;-67
2022/06/08 04:10:12;;;;;;;6.25;2.03;;;15.40;99.90;;;;;;5073892;28;20199;-69
2022/06/08 04:12:37;;;;;;;3.30;2.08;;;15.50;99.90;;;;;;5073350;28;20188;-67
2022/06/08 04:15:04;;;;;;;2.47;1.90;;;15.60;99.90;;;;;;5073366;28;20181;-67
2022/06/08 04:17:29;;;;;;;3.38;1.95;;;15.70;99.90;;;;;;5073594;28;20254;-69
2022/06/08 04:19:55;;;;;;;2.40;1.65;;;15.90;99.90;;;;;;5073158;28;20636;-68
2022/06/08 04:22:22;;;;;;;5.18;2.53;;;16.20;99.90;;;;;;5072292;28;20181;-70
2022/06/08 04:24:48;;;;;;;24.23;7.70;;;16.40;99.90;;;;;;5072606;28;20211;-68
2022/06/08 04:27:14;;;;;;;103.75;32.15;;;16.60;99.90;;;;;;5072520;28;20212;-68
2022/06/08 04:29:40;;;;;;;74.03;23.67;;;16.90;99.90;;;;;;5073369;28;20168;-65
2022/06/08 04:32:09;;;;;;;50.00;16.55;;;17.20;99.90;;;;;;5072972;28;20192;-68
2022/06/08 04:34:36;;;;;;;57.03;19.80;;;17.40;99.90;;;;;;5073290;28;20184;-71
2022/06/08 04:37:01;;;;;;;55.50;18.73;;;17.60;99.90;;;;;;5070700;28;20223;-68
2022/06/08 04:39:27;;;;;;;23.90;8.93;;;17.60;99.90;;;;;;5072783;28;20165;-69
2022/06/08 04:41:52;;;;;;;15.50;5.75;;;17.60;99.90;;;;;;5072089;28;20177;-66
2022/06/08 04:44:18;;;;;;;9.27;3.47;;;17.50;99.90;;;;;;5071199;28;20184;-70
2022/06/08 04:46:44;;;;;;;6.63;2.58;;;17.50;99.90;;;;;;5072204;28;20189;-70
2022/06/08 04:49:09;;;;;;;21.55;7.93;;;17.40;99.90;;;;;;5072240;28;20179;-71
2022/06/08 04:51:35;;;;;;;16.00;6.10;;;17.40;99.90;;;;;;5072623;28;20231;-70
2022/06/08 04:54:01;;;;;;;9.13;4.57;;;17.40;99.90;;;;;;5072596;28;20255;-69
2022/06/08 04:56:27;;;;;;;7.68;3.22;;;17.50;99.90;;;;;;5072822;28;20262;-71
2022/06/08 04:58:54;;;;;;;7.18;2.80;;;17.60;99.90;;;;;;5072576;28;20180;-69
2022/06/08 05:01:21;;;;;;;4.50;1.83;;;17.90;99.90;;;;;;5072643;28;20195;-70
2022/06/08 05:03:46;;;;;;;2.97;1.90;;;18.20;99.90;;;;;;5072601;28;20173;-70
2022/06/08 05:06:12;;;;;;;5.25;1.70;;;18.60;99.90;;;;;;5072709;28;20176;-70
2022/06/08 05:08:37;;;;;;;4.40;1.80;;;19.00;99.90;;;;;;5072555;28;20230;-70
2022/06/08 05:11:05;;;;;;;3.50;1.75;;;19.50;99.90;;;;;;5072155;28;20177;-70
2022/06/08 05:13:31;;;;;;;4.40;1.30;;;20.00;99.90;;;;;;5072297;28;20205;-69
2022/06/08 05:15:56;;;;;;;2.47;1.55;;;20.30;99.90;;;;;;5072008;28;20632;-69
2022/06/08 05:18:22;;;;;;;2.92;1.40;;;20.40;99.90;;;;;;5072060;28;20570;-69
2022/06/08 05:20:48;;;;;;;1.90;1.33;;;20.60;99.90;;;;;;5072299;28;20716;-69
2022/06/08 05:23:21;;;;;;;3.25;1.30;;;20.60;99.90;;;;;;5072328;28;20173;-72
2022/06/08 05:25:46;;;;;;;1.75;1.10;;;20.40;99.90;;;;;;5072350;28;20169;-72
2022/06/08 05:28:13;;;;;;;1.52;1.35;;;20.20;99.90;;;;;;5071689;28;20193;-67
2022/06/08 05:30:40;;;;;;;1.58;1.20;;;20.00;99.90;;;;;;5072106;28;20226;-68
2022/06/08 05:33:06;;;;;;;1.38;1.20;;;20.30;99.90;;;;;;5050850;28;20235;-66
2022/06/08 05:35:32;;;;;;;2.20;1.00;;;20.70;99.90;;;;;;5052305;28;20181;-67
2022/06/08 05:37:58;;;;;;;1.45;1.17;;;21.30;99.90;;;;;;5070896;28;20220;-67
2022/06/08 05:40:25;;;;;;;1.60;1.17;;;22.00;99.90;;;;;;5072155;28;20191;-66
2022/06/08 05:42:51;;;;;;;3.55;1.17;;;22.90;99.90;;;;;;5070582;28;20188;-67
2022/06/08 05:45:24;;;;;;;2.13;1.00;;;23.60;99.10;;;;;;5071949;28;20284;-66
2022/06/08 05:47:50;;;;;;;1.95;1.00;;;24.20;97.80;;;;;;5072003;28;20173;-67
2022/06/08 05:50:16;;;;;;;2.28;1.27;;;24.90;95.80;;;;;;5071428;28;20246;-67
2022/06/08 05:52:42;;;;;;;4.03;1.50;;;25.60;93.70;;;;;;5071754;28;20226;-66
2022/06/08 05:55:09;;;;;;;3.45;1.35;;;26.20;91.80;;;;;;5072195;28;20173;-68
2022/06/08 05:57:36;;;;;;;1.50;1.08;;;26.70;90.50;;;;;;5071730;28;20208;-68
2022/06/08 06:00:04;;;;;;;3.15;1.27;;;27.40;86.70;;;;;;5071663;28;20227;-69
2022/06/08 06:02:30;;;;;;;4.13;1.02;;;27.80;83.60;;;;;;5071950;28;20579;-68
2022/06/08 06:04:55;;;;;;;2.67;1.20;;;28.10;80.50;;;;;;5071535;28;20180;-69
2022/06/08 06:07:21;;;;;;;4.35;1.30;;;28.50;76.60;;;;;;5071308;28;20184;-68
2022/06/08 06:09:46;;;;;;;4.80;1.00;;;28.80;72.60;;;;;;5072168;28;20169;-68
2022/06/08 06:12:12;;;;;;;4.25;1.63;;;28.80;69.90;;;;;;5071603;28;20242;-68
2022/06/08 06:14:37;;;;;;;5.35;2.00;;;28.90;69.00;;;;;;5071519;28;20245;-67
2022/06/08 06:17:04;;;;;;;4.78;1.70;;;29.10;68.60;;;;;;5071628;28;20250;-67
2022/06/08 06:19:29;;;;;;;1.85;0.90;;;29.50;67.70;;;;;;5071804;28;20816;-68
2022/06/08 06:21:55;;;;;;;2.38;0.95;;;30.10;62.90;;;;;;5071756;28;20269;-67
2022/06/08 06:24:21;;;;;;;2.33;1.05;;;30.70;61.70;;;;;;5071637;28;20169;-68
2022/06/08 06:26:46;;;;;;;2.15;0.63;;;31.00;59.40;;;;;;5071681;28;20179;-68
2022/06/08 06:29:12;;;;;;;2.75;1.08;;;30.80;58.30;;;;;;5071419;28;20544;-67
2022/06/08 06:31:43;;;;;;;1.75;1.00;;;30.80;58.70;;;;;;5071088;28;20744;-68
2022/06/08 06:34:12;;;;;;;2.30;1.30;;;30.90;57.70;;;;;;5071412;28;20230;-67
2022/06/08 06:36:37;;;;;;;2.40;1.00;;;30.90;56.80;;;;;;5071597;28;20230;-67
2022/06/08 06:39:03;;;;;;;1.20;0.80;;;31.10;55.90;;;;;;5071157;28;20260;-67
2022/06/08 06:41:30;;;;;;;3.67;0.98;;;31.60;54.80;;;;;;5070453;28;20237;-67
2022/06/08 06:43:55;;;;;;;2.50;0.80;;;32.00;53.60;;;;;;5071536;28;20250;-67
2022/06/08 06:46:21;;;;;;;3.03;1.30;;;32.50;53.20;;;;;;5070980;28;20647;-67
2022/06/08 06:48:46;;;;;;;1.95;0.98;;;32.90;52.60;;;;;;5071406;28;20192;-67
2022/06/08 06:51:12;;;;;;;3.53;1.00;;;32.80;52.20;;;;;;5071185;28;20275;-65
2022/06/08 06:53:38;;;;;;;2.85;0.85;;;32.80;52.80;;;;;;5071407;28;20180;-69
2022/06/08 06:56:04;;;;;;;3.20;0.90;;;32.70;52.80;;;;;;5071493;28;20188;-66
2022/06/08 06:58:29;;;;;;;1.70;1.10;;;32.30;52.20;;;;;;5071349;28;20279;-66
2022/06/08 07:00:55;;;;;;;2.28;0.98;;;32.10;51.10;;;;;;5072577;28;20184;-67
2022/06/08 07:03:21;;;;;;;2.50;0.85;;;32.10;52.90;;;;;;5074750;28;20188;-67
2022/06/08 07:05:47;;;;;;;3.30;1.55;;;32.30;52.60;;;;;;5075170;28;20172;-65
2022/06/08 07:08:13;;;;;;;2.55;1.45;;;32.50;51.80;;;;;;5074505;28;20184;-65
2022/06/08 07:10:39;;;;;;;4.80;2.28;;;32.70;51.00;;;;;;5074618;28;20207;-64
2022/06/08 07:13:04;;;;;;;10.57;6.22;;;32.20;51.80;;;;;;5073586;28;20267;-63
2022/06/08 07:15:30;;;;;;;1.63;1.05;;;32.50;53.30;;;;;;5074987;28;20184;-65
2022/06/08 07:17:56;;;;;;;1.15;0.80;;;32.70;50.10;;;;;;5074298;28;20220;-66
2022/06/08 07:20:23;;;;;;;2.65;0.77;;;32.90;49.60;;;;;;5074876;28;20275;-66
2022/06/08 07:22:50;;;;;;;1.63;0.70;;;32.80;49.10;;;;;;5074910;28;20206;-66
2022/06/08 07:25:17;;;;;;;1.63;0.85;;;32.50;50.60;;;;;;5074288;28;20526;-66
2022/06/08 07:27:43;;;;;;;1.90;0.80;;;31.60;50.40;;;;;;5074420;28;20192;-66
2022/06/08 07:30:09;;;;;;;5.50;1.60;;;31.60;51.70;;;;;;5074681;28;20168;-66
2022/06/08 07:32:35;;;;;;;3.88;1.10;;;31.70;52.60;;;;;;5074452;28;20188;-66
2022/06/08 07:35:03;;;;;;;1.38;0.57;;;32.00;52.70;;;;;;5074635;28;20541;-66
2022/06/08 07:37:29;;;;;;;3.33;0.88;;;32.30;51.20;;;;;;5074260;28;20212;-66
2022/06/08 07:39:55;;;;;;;1.63;0.75;;;32.20;50.80;;;;;;5074190;28;20184;-65
2022/06/08 07:42:21;;;;;;;1.92;1.10;;;31.70;50.60;;;;;;5074158;28;20548;-66
2022/06/08 07:44:47;;;;;;;1.83;0.88;;;31.60;50.90;;;;;;5074644;28;20179;-67
2022/06/08 07:47:14;;;;;;;2.63;0.90;;;31.90;51.40;;;;;;5074218;28;20180;-66
2022/06/08 07:49:41;;;;;;;3.22;1.00;;;32.00;50.80;;;;;;5073935;28;20180;-67
2022/06/08 07:52:06;;;;;;;1.27;1.08;;;31.70;50.80;;;;;;5073905;28;20184;-67
2022/06/08 07:54:32;;;;;;;3.10;1.02;;;31.60;51.10;;;;;;5073617;28;20530;-66
2022/06/08 07:57:00;;;;;;;3.53;0.80;;;31.70;50.90;;;;;;5074016;28;20215;-66
2022/06/08 07:59:29;;;;;;;2.58;0.90;;;31.70;49.20;;;;;;5074232;28;20184;-66
2022/06/08 08:01:54;;;;;;;2.95;1.00;;;31.30;50.70;;;;;;5074102;28;20176;-66
2022/06/08 08:04:20;;;;;;;3.25;1.15;;;31.30;51.90;;;;;;5074007;28;20647;-66
2022/06/08 08:06:46;;;;;;;2.70;1.30;;;31.40;50.60;;;;;;5074048;28;20195;-66
2022/06/08 08:09:18;;;;;;;2.63;0.90;;;31.30;50.60;;;;;;5073337;28;20176;-66
2022/06/08 08:11:45;;;;;;;1.10;0.90;;;31.20;50.10;;;;;;5073497;28;20216;-66
2022/06/08 08:14:12;;;;;;;1.90;0.95;;;31.50;51.50;;;;;;5073275;28;20181;-66
2022/06/08 08:16:39;;;;;;;1.08;0.80;;;31.60;50.20;;;;;;5073192;28;20208;-66
2022/06/08 08:19:05;;;;;;;1.67;0.70;;;31.30;51.40;;;;;;5073264;28;20639;-66
2022/06/08 08:21:32;;;;;;;3.00;0.90;;;31.50;51.40;;;;;;5073692;28;20204;-66
2022/06/08 08:23:59;;;;;;;4.82;1.83;;;31.20;50.60;;;;;;5073296;28;20185;-62
2022/06/08 08:26:26;;;;;;;2.53;1.20;;;31.00;52.70;;;;;;5073503;28;20243;-66
2022/06/08 08:28:53;;;;;;;2.22;1.23;;;31.10;52.80;;;;;;5073428;28;20267;-65
2022/06/08 08:31:18;;;;;;;5.95;1.00;;;31.00;52.90;;;;;;5073351;28;20176;-65
2022/06/08 08:33:44;;;;;;;3.28;0.90;;;30.60;52.60;;;;;;5073263;28;20184;-65
2022/06/08 08:36:09;;;;;;;1.58;0.90;;;30.10;51.70;;;;;;5073234;28;20180;-66
2022/06/08 08:38:35;;;;;;;3.00;0.88;;;29.10;53.20;;;;;;5073311;28;20199;-65
2022/06/08 08:41:01;;;;;;;1.73;0.88;;;28.60;56.10;;;;;;5073171;28;20291;-65
2022/06/08 08:43:31;;;;;;;2.38;0.82;;;28.60;56.10;;;;;;5072992;28;20180;-65
2022/06/08 08:46:15;;;;;;;2.95;1.13;;;28.60;55.50;;;;;;5073248;28;20594;-65
2022/06/08 08:48:54;;;;;;;2.65;0.93;;;28.70;54.30;;;;;;5072650;28;20655;-65
2022/06/08 08:51:25;;;;;;;2.72;1.00;;;29.00;53.80;;;;;;5073111;28;20255;-66
2022/06/08 08:54:18;;;;;;;2.08;1.10;;;29.20;52.80;;;;;;5072823;28;20173;-66
2022/06/08 08:56:43;;;;;;;2.58;0.90;;;28.70;52.60;;;;;;5066478;28;20219;-66
2022/06/08 08:59:17;;;;;;;2.10;0.60;;;28.50;52.00;;;;;;5068365;28;20272;-66
2022/06/08 09:01:46;;;;;;;3.28;1.17;;;28.80;54.10;;;;;;5073026;28;20192;-66
2022/06/08 09:04:26;;;;;;;0.93;0.63;;;29.00;53.10;;;;;;5072842;28;20212;-66
2022/06/08 09:06:53;;;;;;;1.05;0.88;;;29.30;53.00;;;;;;5071797;28;20260;-66
2022/06/08 09:09:29;;;;;;;2.63;0.90;;;29.50;52.50;;;;;;5072298;28;20181;-65
2022/06/08 09:11:55;;;;;;;4.53;0.70;;;29.30;50.10;;;;;;5071961;28;20180;-66
2022/06/08 09:14:24;;;;;;;2.30;0.82;;;29.00;52.60;;;;;;5071963;28;20226;-66
2022/06/08 09:17:04;;;;;;;2.92;0.80;;;28.90;52.20;;;;;;5072534;28;20226;-66
2022/06/08 09:19:37;;;;;;;2.70;0.90;;;29.00;54.00;;;;;;5070475;28;20217;-66
2022/06/08 09:22:02;;;;;;;2.28;0.90;;;29.00;53.00;;;;;;5054039;28;20174;-66
2022/06/08 09:24:35;;;;;;;3.38;1.00;;;29.10;53.60;;;;;;5072610;28;20173;-66
2022/06/08 09:27:30;;;;;;;2.65;0.88;;;29.20;50.60;;;;;;5062362;28;20213;-66
2022/06/08 09:29:58;;;;;;;1.75;0.63;;;28.80;47.30;;;;;;5072636;28;20541;-67
2022/06/08 09:32:28;;;;;;;1.70;0.70;;;28.30;48.30;;;;;;5071942;28;20176;-66
2022/06/08 09:34:58;;;;;;;3.33;0.70;;;27.90;50.90;;;;;;5072476;28;20200;-65
2022/06/08 09:37:26;;;;;;;2.78;0.52;;;27.90;52.80;;;;;;5072093;28;20227;-66
2022/06/08 09:39:54;;;;;;;2.45;1.08;;;28.10;53.10;;;;;;5072465;28;20196;-66
2022/06/08 09:42:41;;;;;;;2.70;0.60;;;28.00;52.40;;;;;;5072499;28;20177;-67
2022/06/08 09:45:29;;;;;;;1.02;0.93;;;27.90;53.30;;;;;;5072334;28;20188;-66
2022/06/08 09:51:28;;;;;;;3.92;1.17;;;28.00;54.30;;;;;;5059458;28;20650;-66
2022/06/08 09:54:33;;;;;;;2.58;0.88;;;27.80;54.90;;;;;;5071415;28;20257;-66
2022/06/08 09:57:28;;;;;;;0.88;0.80;;;28.00;54.80;;;;;;5041631;28;20212;-66
2022/06/08 10:00:30;;;;;;;4.07;1.25;;;28.20;54.20;;;;;;5056693;28;20177;-66
2022/06/08 10:03:39;;;;;;;5.05;1.20;;;28.40;55.50;;;;;;5071863;28;20667;-66
2022/06/08 10:06:36;;;;;;;4.57;1.00;;;28.10;53.20;;;;;;5068301;28;20671;-66
2022/06/08 10:09:15;;;;;;;3.00;1.00;;;27.70;54.90;;;;;;5064656;28;20187;-66
2022/06/08 10:12:02;;;;;;;2.38;1.08;;;27.50;56.00;;;;;;5053116;28;20188;-67
2022/06/08 10:14:34;;;;;;;1.58;1.10;;;27.70;58.10;;;;;;5070552;28;20223;-66
2022/06/08 10:17:12;;;;;;;3.20;1.10;;;28.10;58.00;;;;;;5071853;28;20232;-66
2022/06/08 10:20:03;;;;;;;3.35;1.20;;;28.60;55.20;;;;;;5071865;28;20225;-66
2022/06/08 10:22:35;;;;;;;2.45;1.00;;;28.90;55.50;;;;;;5072179;28;20484;-67
2022/06/08 10:25:14;;;;;;;2.65;0.90;;;29.30;53.90;;;;;;5071895;28;20173;-67
2022/06/08 10:27:50;;;;;;;3.42;0.93;;;29.80;52.90;;;;;;5071977;28;20195;-67
2022/06/08 10:30:24;;;;;;;3.67;1.00;;;30.20;51.40;;;;;;5071816;28;20259;-67
2022/06/08 10:33:00;;;;;;;2.08;0.70;;;30.50;52.70;;;;;;5071876;28;20179;-67
2022/06/08 10:35:51;;;;;;;2.15;1.00;;;30.40;50.50;;;;;;5072192;28;20204;-67
2022/06/08 10:38:25;;;;;;;2.35;0.90;;;30.50;50.90;;;;;;5075596;28;20216;-67
2022/06/08 10:42:39;;;;;;;1.05;0.63;;;30.40;50.00;;;;;;5075699;28;20176;-67
2022/06/08 10:44:05;;;;;;;3.53;0.80;;;29.90;49.50;;;;;;5075629;28;20189;-67
2022/06/08 10:46:42;;;;;;;2.20;0.90;;;29.70;50.90;;;;;;5075633;28;20177;-67
2022/06/08 10:49:30;;;;;;;2.67;1.48;;;29.60;50.70;;;;;;5075420;28;20169;-67
2022/06/08 10:52:20;;;;;;;1.40;0.80;;;29.40;50.60;;;;;;5075381;28;20593;-67
2022/06/08 10:54:57;;;;;;;1.05;0.63;;;29.00;49.90;;;;;;5075551;28;20176;-67
2022/06/08 10:57:40;;;;;;;1.33;1.02;;;28.40;50.80;;;;;;5075461;28;20208;-66
2022/06/08 11:00:25;;;;;;;2.30;1.30;;;28.00;52.10;;;;;;5075312;28;20581;-66
2022/06/08 11:02:56;;;;;;;1.92;0.98;;;27.50;52.00;;;;;;5075354;28;20591;-67
2022/06/08 11:05:37;;;;;;;5.18;1.50;;;27.30;52.50;;;;;;5075440;28;20235;-67
2022/06/08 11:08:12;;;;;;;1.52;0.77;;;27.10;53.60;;;;;;5075159;28;20181;-66
2022/06/08 11:10:44;;;;;;;1.40;0.88;;;26.90;53.20;;;;;;5075245;28;20274;-66
2022/06/08 11:13:36;;;;;;;2.35;0.70;;;26.70;54.50;;;;;;5075016;28;20181;-66
2022/06/08 11:16:13;;;;;;;3.03;0.77;;;26.50;55.00;;;;;;5074326;28;20207;-67
2022/06/08 11:19:02;;;;;;;1.83;0.88;;;26.30;55.20;;;;;;5074947;28;20227;-67
2022/06/08 11:21:37;;;;;;;2.85;0.73;;;26.10;55.50;;;;;;5075112;28;20180;-66
2022/06/08 11:24:20;;;;;;;2.15;0.88;;;25.90;56.30;;;;;;5074810;28;20619;-66
2022/06/08 11:27:10;;;;;;;4.55;1.40;;;26.00;56.30;;;;;;5074950;28;20177;-66
2022/06/08 11:29:54;;;;;;;2.65;0.70;;;26.20;57.80;;;;;;5074886;28;20210;-67
2022/06/08 11:33:00;;;;;;;3.00;0.68;;;26.60;56.80;;;;;;5074789;28;20715;-66
2022/06/08 11:35:46;;;;;;;4.28;1.13;;;27.00;55.80;;;;;;5074404;28;20189;-66
2022/06/08 11:38:30;;;;;;;1.98;1.02;;;27.30;56.30;;;;;;5074704;28;20289;-66
2022/06/08 11:41:26;;;;;;;2.15;0.70;;;27.20;53.80;;;;;;5074580;28;20176;-66
2022/06/08 11:43:52;;;;;;;2.10;0.80;;;27.20;55.70;;;;;;5074588;28;20181;-66
2022/06/08 11:46:25;;;;;;;2.53;1.00;;;27.10;55.10;;;;;;5074411;28;20177;-66
2022/06/08 11:48:52;;;;;;;3.08;0.90;;;27.00;55.00;;;;;;5073363;28;20177;-66
2022/06/08 11:51:50;;;;;;;1.85;0.90;;;26.80;54.80;;;;;;5074331;28;20273;-66
2022/06/08 11:54:32;;;;;;;1.10;0.60;;;26.50;55.30;;;;;;5072973;28;20180;-66
2022/06/08 11:57:03;;;;;;;4.82;1.05;;;26.50;55.30;;;;;;5074093;28;20667;-66
2022/06/08 11:59:33;;;;;;;2.47;1.00;;;26.50;55.50;;;;;;5074370;28;20629;-66
2022/06/08 12:02:03;;;;;;;2.47;1.08;;;26.40;56.80;;;;;;5072642;28;20181;-67
2022/06/08 12:04:33;;;;;;;1.63;0.88;;;26.50;55.90;;;;;;5070363;28;20180;-66
2022/06/08 12:06:59;;;;;;;1.45;0.73;;;26.40;56.40;;;;;;5073525;28;20515;-66
2022/06/08 12:09:34;;;;;;;2.22;0.95;;;26.40;56.90;;;;;;5063793;28;20185;-67
2022/06/08 12:12:13;;;;;;;1.30;0.80;;;26.20;56.10;;;;;;5060220;28;20168;-66
2022/06/08 12:14:39;;;;;;;1.55;0.68;;;26.10;57.20;;;;;;5073814;28;20180;-67
2022/06/08 12:17:22;;;;;;;2.15;0.75;;;26.00;56.80;;;;;;5073782;28;20216;-67
2022/06/08 12:19:55;;;;;;;1.42;0.82;;;25.90;57.10;;;;;;5073651;28;20216;-67
2022/06/08 12:22:35;;;;;;;1.50;0.70;;;25.80;57.40;;;;;;5073649;28;20228;-67
2022/06/08 12:25:09;;;;;;;3.60;1.10;;;25.70;58.20;;;;;;5073529;28;20175;-67
2022/06/08 12:27:46;;;;;;;3.72;0.93;;;25.60;58.80;;;;;;5073685;28;20218;-66
2022/06/08 12:30:25;;;;;;;2.92;0.85;;;25.70;59.00;;;;;;5073256;28;20187;-66
2022/06/08 12:32:58;;;;;;;4.03;1.00;;;26.00;58.20;;;;;;5053593;28;20177;-66
2022/06/08 12:35:27;;;;;;;1.15;0.90;;;26.40;58.30;;;;;;5062657;28;20169;-67
2022/06/08 12:38:21;;;;;;;1.48;0.70;;;26.70;56.10;;;;;;5068701;28;20216;-66
2022/06/08 12:41:04;;;;;;;3.95;1.27;;;27.00;56.10;;;;;;5053495;28;20600;-67
2022/06/08 12:43:41;;;;;;;4.93;0.98;;;27.40;56.30;;;;;;5053405;28;20649;-67
2022/06/08 12:46:13;;;;;;;2.83;1.10;;;27.60;55.30;;;;;;5053340;28;20188;-67
2022/06/08 12:48:47;;;;;;;1.77;1.10;;;27.60;54.40;;;;;;5053356;28;20174;-67
2022/06/08 12:51:30;;;;;;;2.22;0.88;;;27.60;54.50;;;;;;5053431;28;20173;-66
2022/06/08 12:53:57;;;;;;;1.45;0.73;;;27.90;53.90;;;;;;5053237;28;20173;-66
2022/06/08 12:56:23;;;;;;;1.35;0.75;;;28.20;53.00;;;;;;5053077;28;20264;-66
2022/06/08 12:58:54;;;;;;;2.92;1.00;;;28.10;53.10;;;;;;5052741;28;20607;-67
2022/06/08 13:01:23;;;;;;;3.03;1.17;;;28.00;53.30;;;;;;5053023;28;20172;-66
2022/06/08 13:03:49;;;;;;;3.00;1.17;;;28.10;53.00;;;;;;5051911;28;20537;-67
2022/06/08 13:06:15;;;;;;;1.98;0.80;;;28.30;52.70;;;;;;5052953;28;20183;-66
2022/06/08 13:08:41;;;;;;;2.30;0.80;;;28.40;53.40;;;;;;5052962;28;20287;-67
2022/06/08 13:11:14;;;;;;;1.08;0.70;;;28.70;53.40;;;;;;5051671;28;20185;-67
2022/06/08 13:13:40;;;;;;;2.75;0.98;;;28.80;53.10;;;;;;5052888;28;20702;-67
2022/06/08 13:16:21;;;;;;;3.38;1.13;;;28.70;53.50;;;;;;5052753;28;20217;-67